Time;durP1;ratioP1;P1;durP2;ratioP2;P2;SDS_P1;SDS_P2;PMS_P1;PMS_P2;Temp;Humidity;BMP_temperature;BMP_pressure;BME280_temperature;BME280_humidity;BME280_pressure;Samples;Min_cycle;Max_cycle;Signal;HPM_P1;HPM_P2
2022/01/15 00:01:00;;;;;;;22.48;8.63;;;6.10;99.90;;;;;;5021454;28;20514;-91
2022/01/15 00:03:27;;;;;;;21.25;8.60;;;6.10;99.90;;;;;;5004060;28;20070;-91
2022/01/15 00:05:54;;;;;;;21.80;7.63;;;6.10;99.90;;;;;;5020963;28;20053;-91
2022/01/15 00:08:21;;;;;;;27.73;9.00;;;6.10;99.90;;;;;;5022058;28;20050;-91
2022/01/15 00:10:47;;;;;;;27.08;9.63;;;6.20;99.90;;;;;;5021995;28;20096;-91
2022/01/15 00:13:23;;;;;;;25.10;9.95;;;6.20;99.90;;;;;;5025295;28;20049;-91
2022/01/15 00:16:00;;;;;;;32.88;10.45;;;6.10;99.90;;;;;;5022634;28;20056;-91
2022/01/15 00:18:39;;;;;;;23.15;9.38;;;6.20;99.90;;;;;;5020706;28;20081;-92
2022/01/15 00:21:05;;;;;;;33.85;9.90;;;6.20;99.90;;;;;;5020828;28;20080;-91
2022/01/15 00:23:31;;;;;;;40.38;10.95;;;6.20;99.90;;;;;;5020732;28;20050;-91
2022/01/15 00:25:56;;;;;;;39.05;12.07;;;6.20;99.90;;;;;;5019878;28;20077;-91
2022/01/15 00:28:28;;;;;;;34.05;11.43;;;6.20;99.90;;;;;;5020768;28;20058;-91
2022/01/15 00:31:00;;;;;;;29.35;9.80;;;6.30;99.90;;;;;;5019969;28;20050;-90
2022/01/15 00:33:29;;;;;;;21.02;8.95;;;6.30;99.90;;;;;;5020308;28;20050;-91
2022/01/15 00:35:55;;;;;;;34.80;10.65;;;6.20;99.90;;;;;;5020953;28;20050;-91
2022/01/15 00:38:21;;;;;;;31.95;10.38;;;6.30;99.90;;;;;;5023611;28;20037;-91
2022/01/15 00:40:47;;;;;;;35.08;12.27;;;6.30;99.90;;;;;;5024256;28;20110;-91
2022/01/15 00:43:12;;;;;;;48.15;15.98;;;6.30;99.90;;;;;;5024954;28;20045;-91
2022/01/15 00:45:38;;;;;;;33.10;11.63;;;6.30;99.90;;;;;;5024084;28;20054;-91
2022/01/15 00:48:04;;;;;;;34.95;12.95;;;6.30;99.90;;;;;;5023528;28;20096;-91
2022/01/15 00:50:30;;;;;;;29.90;10.98;;;6.30;99.90;;;;;;5023792;28;20044;-91
2022/01/15 00:52:55;;;;;;;33.83;10.27;;;6.30;99.90;;;;;;5025462;28;20042;-91
2022/01/15 00:55:21;;;;;;;31.05;10.93;;;6.30;99.90;;;;;;5008779;28;20087;-89
2022/01/15 00:57:47;;;;;;;33.60;11.90;;;6.30;99.90;;;;;;5008865;28;20519;-89
2022/01/15 01:00:18;;;;;;;33.38;11.43;;;6.30;99.90;;;;;;5009079;28;20077;-91
2022/01/15 01:02:44;;;;;;;39.83;10.80;;;6.30;99.90;;;;;;5011024;28;20044;-91
2022/01/15 01:05:10;;;;;;;37.38;11.00;;;6.10;99.90;;;;;;5026793;28;20049;-91
2022/01/15 01:07:36;;;;;;;39.05;14.13;;;6.30;99.90;;;;;;5025575;28;20048;-91
2022/01/15 01:23:10;;;;;;;47.80;13.60;;;6.30;99.90;;;;;;5026818;28;20050;-91
2022/01/15 01:25:48;;;;;;;41.80;12.30;;;6.30;99.90;;;;;;5010870;28;20168;-91
2022/01/15 01:28:23;;;;;;;40.05;12.18;;;6.30;99.90;;;;;;5011182;28;20066;-91
2022/01/15 01:30:56;;;;;;;39.22;12.05;;;6.30;99.90;;;;;;5026588;28;20060;-91
2022/01/15 01:36:02;;;;;;;37.38;11.52;;;6.30;99.90;;;;;;5027568;28;20045;-91
2022/01/15 01:38:36;;;;;;;32.17;11.30;;;6.30;99.90;;;;;;5009650;28;20418;-91
2022/01/15 01:41:02;;;;;;;27.15;10.77;;;6.30;99.90;;;;;;5025372;28;20507;-91
2022/01/15 01:46:11;;;;;;;39.40;12.38;;;6.30;99.90;;;;;;5022987;28;20064;-91
2022/01/15 01:48:38;;;;;;;39.80;11.48;;;6.20;99.90;;;;;;5024549;28;20062;-91
2022/01/15 01:51:06;;;;;;;39.20;12.57;;;6.20;99.90;;;;;;5024858;28;20034;-91
2022/01/15 01:53:48;;;;;;;27.77;9.63;;;6.30;99.90;;;;;;5025231;28;20050;-91
2022/01/15 01:56:14;;;;;;;32.67;11.30;;;6.30;99.90;;;;;;5024456;28;20057;-91
2022/01/15 01:58:40;;;;;;;36.05;12.13;;;6.30;99.90;;;;;;5008752;28;20050;-91
2022/01/15 02:01:05;;;;;;;32.03;10.15;;;6.30;99.90;;;;;;5023588;28;20073;-91
2022/01/15 02:03:31;;;;;;;39.53;10.75;;;6.30;99.90;;;;;;5023740;28;20063;-91
2022/01/15 02:05:56;;;;;;;37.00;12.80;;;6.20;99.90;;;;;;5023946;28;20073;-91
2022/01/15 02:08:22;;;;;;;37.60;12.10;;;6.20;99.90;;;;;;5007564;28;20121;-91
2022/01/15 02:10:49;;;;;;;36.25;10.80;;;6.20;99.90;;;;;;5023888;28;20046;-91
2022/01/15 02:13:15;;;;;;;32.58;11.50;;;6.30;99.90;;;;;;5024567;28;20572;-91
2022/01/15 02:15:41;;;;;;;40.85;11.65;;;6.20;99.90;;;;;;5009220;28;20053;-89
2022/01/15 02:18:07;;;;;;;41.05;12.00;;;6.30;99.90;;;;;;5026928;28;20050;-89
2022/01/15 02:25:55;;;;;;;41.03;11.15;;;6.20;99.90;;;;;;5028456;28;20503;-88
2022/01/15 02:28:23;;;;;;;26.70;9.63;;;6.20;99.90;;;;;;5029059;28;20038;-89
2022/01/15 02:30:54;;;;;;;25.58;9.48;;;6.20;99.90;;;;;;5028721;28;20030;-89
2022/01/15 02:33:20;;;;;;;26.75;8.57;;;6.20;99.90;;;;;;5030588;28;20040;-89
2022/01/15 02:35:45;;;;;;;23.88;8.50;;;6.20;99.90;;;;;;5028168;28;20038;-89
2022/01/15 02:38:12;;;;;;;23.55;7.20;;;6.20;99.90;;;;;;5022312;28;20045;-88
2022/01/15 02:40:38;;;;;;;20.05;7.28;;;6.20;99.90;;;;;;5006590;28;20042;-89
2022/01/15 02:43:06;;;;;;;26.88;9.52;;;6.20;99.90;;;;;;5023005;28;20203;-89
2022/01/15 02:45:34;;;;;;;25.77;9.45;;;6.20;99.90;;;;;;4989077;28;20061;-89
2022/01/15 02:48:09;;;;;;;27.67;9.25;;;6.20;99.90;;;;;;5005831;28;20106;-89
2022/01/15 02:50:35;;;;;;;24.10;9.38;;;6.10;99.90;;;;;;5003972;28;20050;-89
2022/01/15 02:53:03;;;;;;;33.30;9.70;;;6.10;99.90;;;;;;5021018;28;20049;-90
2022/01/15 02:55:28;;;;;;;33.10;10.60;;;6.10;99.90;;;;;;5020577;28;20057;-90
2022/01/15 02:57:55;;;;;;;28.65;9.25;;;6.10;99.90;;;;;;5002594;28;20492;-89
2022/01/15 03:00:25;;;;;;;25.80;8.57;;;6.10;99.90;;;;;;5019417;28;20045;-89
2022/01/15 03:02:51;;;;;;;22.35;8.48;;;6.10;99.90;;;;;;5022616;28;20046;-89
2022/01/15 03:05:17;;;;;;;22.17;8.48;;;6.10;99.90;;;;;;5005109;28;20052;-90
2022/01/15 03:07:42;;;;;;;21.23;7.32;;;6.00;99.90;;;;;;5021823;28;20109;-89
2022/01/15 03:10:09;;;;;;;24.88;7.90;;;6.00;99.90;;;;;;5023473;28;20049;-90
2022/01/15 03:12:35;;;;;;;21.15;8.05;;;6.00;99.90;;;;;;5025696;28;20046;-90
2022/01/15 03:15:04;;;;;;;17.75;6.40;;;6.00;99.90;;;;;;5009509;28;20037;-89
2022/01/15 03:17:29;;;;;;;27.40;7.93;;;6.00;99.90;;;;;;5009173;28;20046;-89
2022/01/15 03:19:55;;;;;;;21.23;7.43;;;6.00;99.90;;;;;;5025442;28;20132;-89
2022/01/15 03:22:21;;;;;;;25.38;7.75;;;6.00;99.90;;;;;;5026107;28;20045;-89
2022/01/15 03:24:48;;;;;;;21.73;7.18;;;7.30;99.90;;;;;;5009696;28;20038;-90
2022/01/15 03:27:13;;;;;;;17.23;6.80;;;6.00;99.90;;;;;;5009467;28;20074;-90
2022/01/15 03:29:39;;;;;;;17.48;6.47;;;6.00;99.90;;;;;;5011369;28;20038;-91
2022/01/15 03:32:05;;;;;;;16.88;6.20;;;6.70;99.90;;;;;;5029354;28;20113;-89
2022/01/15 03:34:31;;;;;;;19.77;5.88;;;5.90;99.90;;;;;;5026832;28;20106;-89
2022/01/15 03:36:57;;;;;;;17.15;5.85;;;5.90;99.90;;;;;;5026760;28;20038;-89
2022/01/15 03:39:26;;;;;;;19.98;5.70;;;5.90;99.90;;;;;;5010466;28;20045;-90
2022/01/15 03:41:51;;;;;;;17.80;6.43;;;5.90;99.90;;;;;;5010622;28;20044;-90
2022/01/15 03:44:17;;;;;;;19.00;5.80;;;5.90;99.90;;;;;;5025247;28;20069;-89
2022/01/15 03:46:42;;;;;;;14.57;5.07;;;5.90;99.90;;;;;;5009557;28;20048;-90
2022/01/15 03:49:08;;;;;;;16.70;5.70;;;5.90;99.90;;;;;;5025701;28;20053;-90
2022/01/15 03:51:34;;;;;;;15.05;4.93;;;5.80;99.90;;;;;;5010402;28;20049;-90
2022/01/15 03:53:59;;;;;;;19.40;5.82;;;5.80;99.90;;;;;;5027994;28;20070;-90
2022/01/15 03:56:25;;;;;;;14.93;5.50;;;5.70;99.90;;;;;;5028171;28;20114;-90
2022/01/15 03:58:51;;;;;;;22.48;6.60;;;5.80;99.90;;;;;;5023707;28;20085;-90
2022/01/15 04:01:16;;;;;;;21.48;5.70;;;5.80;99.90;;;;;;5005907;28;20050;-90
2022/01/15 04:03:42;;;;;;;12.00;5.28;;;5.80;99.90;;;;;;5024017;28;20104;-90
2022/01/15 04:06:07;;;;;;;16.77;5.43;;;5.80;99.90;;;;;;5007299;28;20100;-90
2022/01/15 04:08:33;;;;;;;15.82;5.95;;;5.80;99.90;;;;;;5022024;28;20099;-90
2022/01/15 04:10:59;;;;;;;12.80;5.60;;;5.80;99.90;;;;;;5022525;28;20049;-90
2022/01/15 04:13:24;;;;;;;13.57;4.68;;;5.80;99.90;;;;;;5006461;28;20052;-90
2022/01/15 04:15:53;;;;;;;10.82;5.35;;;5.80;99.90;;;;;;5005175;28;20120;-91
2022/01/15 04:18:21;;;;;;;9.93;4.38;;;5.80;99.90;;;;;;5021455;28;20050;-90
2022/01/15 04:20:47;;;;;;;11.23;4.80;;;5.80;99.90;;;;;;5021398;28;20045;-90
2022/01/15 04:23:13;;;;;;;11.80;4.55;;;5.80;99.90;;;;;;5031241;28;20056;-89
2022/01/15 04:25:39;;;;;;;12.30;4.65;;;5.80;99.90;;;;;;5034383;28;20072;-89
2022/01/15 04:28:09;;;;;;;13.05;4.38;;;5.80;99.90;;;;;;5017708;28;20074;-89
2022/01/15 04:30:35;;;;;;;11.88;4.82;;;5.80;99.90;;;;;;5032945;28;20054;-90
2022/01/15 04:33:01;;;;;;;13.82;5.75;;;5.70;99.90;;;;;;5020397;28;20053;-90
2022/01/15 04:35:26;;;;;;;18.15;5.13;;;5.80;99.90;;;;;;5020236;28;20054;-91
2022/01/15 04:38:00;;;;;;;12.95;4.95;;;5.80;99.90;;;;;;5021504;28;20050;-90
2022/01/15 04:40:25;;;;;;;15.98;6.65;;;5.80;99.90;;;;;;5005452;28;20076;-90
2022/01/15 04:42:51;;;;;;;16.55;5.57;;;5.80;99.90;;;;;;5020241;28;20578;-90
2022/01/15 04:45:17;;;;;;;15.00;5.20;;;5.80;99.90;;;;;;5019459;28;20053;-90
2022/01/15 04:47:42;;;;;;;17.65;5.50;;;5.70;99.90;;;;;;5019102;28;20092;-90
2022/01/15 04:50:13;;;;;;;17.77;5.78;;;5.80;99.90;;;;;;5020146;28;20052;-90
2022/01/15 04:52:40;;;;;;;18.77;5.57;;;5.80;99.90;;;;;;5023011;28;20064;-90
2022/01/15 04:55:08;;;;;;;19.60;5.65;;;5.70;99.90;;;;;;5023022;28;20149;-90
2022/01/15 04:57:34;;;;;;;19.60;6.20;;;5.80;99.90;;;;;;5019850;28;20058;-90
2022/01/15 05:00:00;;;;;;;14.52;5.40;;;6.20;99.90;;;;;;5018771;28;20127;-90
2022/01/15 05:02:25;;;;;;;17.90;5.60;;;5.70;99.90;;;;;;5018459;28;20049;-90
2022/01/15 05:04:51;;;;;;;17.75;5.70;;;5.70;99.90;;;;;;5019353;28;20116;-90
2022/01/15 05:07:17;;;;;;;20.75;5.60;;;5.70;99.90;;;;;;5019077;28;20060;-90
2022/01/15 05:09:43;;;;;;;16.00;5.25;;;5.70;99.90;;;;;;5018187;28;20080;-90
2022/01/15 05:12:20;;;;;;;20.20;6.00;;;5.80;99.90;;;;;;5018946;28;20100;-90
2022/01/15 05:14:46;;;;;;;16.10;5.97;;;5.80;99.90;;;;;;5019295;28;20042;-90
2022/01/15 05:17:12;;;;;;;12.60;4.88;;;5.70;99.90;;;;;;5017419;28;20095;-90
2022/01/15 05:19:37;;;;;;;18.80;5.10;;;5.70;99.90;;;;;;5017223;28;20050;-90
2022/01/15 05:22:03;;;;;;;14.63;5.45;;;5.70;99.90;;;;;;5017788;28;20064;-90
2022/01/15 05:24:30;;;;;;;13.65;4.90;;;5.70;99.90;;;;;;5018043;28;20057;-89
2022/01/15 05:26:57;;;;;;;16.08;4.85;;;5.70;99.90;;;;;;5001682;28;20041;-90
2022/01/15 05:29:22;;;;;;;11.75;4.85;;;5.70;99.90;;;;;;5018605;28;20049;-91
2022/01/15 05:31:48;;;;;;;12.32;5.25;;;5.70;99.90;;;;;;5004319;28;20113;-91
2022/01/15 05:34:14;;;;;;;14.00;5.13;;;5.70;99.90;;;;;;5022187;28;20088;-91
2022/01/15 05:36:39;;;;;;;14.80;5.15;;;5.70;99.90;;;;;;5021745;28;20103;-89
2022/01/15 05:39:06;;;;;;;13.05;4.97;;;5.70;99.90;;;;;;5005496;28;20074;-90
2022/01/15 05:41:32;;;;;;;12.40;4.18;;;5.70;99.90;;;;;;5020358;28;20057;-90
2022/01/15 05:44:01;;;;;;;9.75;4.13;;;5.70;99.90;;;;;;5020205;28;20057;-90
2022/01/15 05:46:28;;;;;;;8.98;3.80;;;5.60;99.90;;;;;;5004258;28;20453;-90
2022/01/15 05:48:54;;;;;;;11.85;4.35;;;5.60;99.90;;;;;;5020749;28;20060;-90
2022/01/15 05:51:19;;;;;;;13.88;4.90;;;5.60;99.90;;;;;;5003976;28;20054;-90
2022/01/15 05:53:45;;;;;;;10.25;4.07;;;5.60;99.90;;;;;;5004527;28;20153;-91
2022/01/15 05:56:10;;;;;;;11.75;4.47;;;5.60;99.90;;;;;;5019587;28;20583;-90
2022/01/15 05:58:36;;;;;;;12.32;5.07;;;5.60;99.90;;;;;;5020017;28;20410;-90
2022/01/15 06:01:02;;;;;;;11.85;4.40;;;5.60;99.90;;;;;;5019568;28;20054;-90
2022/01/15 06:03:28;;;;;;;12.52;5.03;;;5.60;99.90;;;;;;5018546;28;20046;-90
2022/01/15 06:05:54;;;;;;;10.77;4.40;;;5.70;99.90;;;;;;5017534;28;20113;-90
2022/01/15 06:08:19;;;;;;;12.05;3.83;;;5.60;99.90;;;;;;5021737;28;20092;-90
2022/01/15 06:10:45;;;;;;;10.93;5.35;;;5.60;99.90;;;;;;5006209;28;20038;-90
2022/01/15 06:13:10;;;;;;;8.40;4.15;;;5.60;99.90;;;;;;5025792;28;20085;-90
2022/01/15 06:15:36;;;;;;;10.80;3.92;;;5.60;99.90;;;;;;5025554;28;20080;-90
2022/01/15 06:18:02;;;;;;;10.65;4.28;;;5.60;99.90;;;;;;5023085;28;20057;-90
2022/01/15 06:20:28;;;;;;;14.25;4.88;;;5.60;99.90;;;;;;5022486;28;20065;-91
2022/01/15 06:22:54;;;;;;;8.65;3.38;;;5.50;99.90;;;;;;5021506;28;20041;-91
2022/01/15 06:25:19;;;;;;;7.93;3.58;;;5.50;99.90;;;;;;5004986;28;20104;-91
2022/01/15 06:27:45;;;;;;;8.02;3.60;;;5.50;99.90;;;;;;5021487;28;20054;-91
2022/01/15 06:30:11;;;;;;;10.35;3.97;;;5.50;99.90;;;;;;5020176;28;20042;-90
2022/01/15 06:32:37;;;;;;;10.38;3.78;;;5.50;99.90;;;;;;5002778;28;20646;-91
2022/01/15 06:35:07;;;;;;;7.03;3.08;;;5.50;99.90;;;;;;5019629;28;20057;-90
2022/01/15 06:37:33;;;;;;;7.50;3.65;;;5.50;99.90;;;;;;5004229;28;20081;-91
2022/01/15 06:39:59;;;;;;;5.78;2.85;;;5.50;99.90;;;;;;5018783;28;20042;-90
2022/01/15 06:42:24;;;;;;;7.28;3.20;;;5.50;99.90;;;;;;5018258;28;20069;-92
2022/01/15 06:44:50;;;;;;;6.22;2.90;;;5.50;99.90;;;;;;5018614;28;20046;-91
2022/01/15 06:47:15;;;;;;;6.25;2.80;;;5.50;99.90;;;;;;5019704;28;20068;-90
2022/01/15 06:49:51;;;;;;;7.38;3.05;;;5.40;99.90;;;;;;5021827;28;20081;-91
2022/01/15 06:52:16;;;;;;;11.75;3.80;;;5.40;99.90;;;;;;5023423;28;20089;-90
2022/01/15 06:54:42;;;;;;;9.85;3.25;;;5.50;99.90;;;;;;5007531;28;20053;-91
2022/01/15 06:57:08;;;;;;;8.98;3.50;;;5.50;99.90;;;;;;5021388;28;20058;-91
2022/01/15 06:59:33;;;;;;;11.80;4.88;;;5.60;99.90;;;;;;5022928;28;20048;-90
2022/01/15 07:01:59;;;;;;;13.38;4.82;;;5.40;99.90;;;;;;5022834;28;20073;-90
2022/01/15 07:04:25;;;;;;;13.60;4.20;;;5.50;99.90;;;;;;5020568;28;20128;-91
2022/01/15 07:06:50;;;;;;;13.43;5.50;;;5.50;99.90;;;;;;5024120;28;20034;-91
2022/01/15 07:09:16;;;;;;;13.68;4.95;;;5.50;99.90;;;;;;5008266;28;20050;-90
2022/01/15 07:11:42;;;;;;;16.20;5.05;;;5.50;99.90;;;;;;5005549;28;20049;-91
2022/01/15 07:14:07;;;;;;;12.57;4.85;;;5.50;99.90;;;;;;5022278;28;20049;-90
2022/01/15 07:16:34;;;;;;;12.35;4.40;;;5.40;99.90;;;;;;5022813;28;20104;-90
2022/01/15 07:19:00;;;;;;;12.77;4.20;;;5.50;99.90;;;;;;5005832;28;20042;-91
2022/01/15 07:21:26;;;;;;;11.82;4.47;;;5.50;99.90;;;;;;5022985;28;20084;-90
2022/01/15 07:23:52;;;;;;;12.88;4.18;;;6.10;99.90;;;;;;5024346;28;20045;-91
2022/01/15 07:26:17;;;;;;;11.07;4.47;;;5.50;99.90;;;;;;5022893;28;20054;-91
2022/01/15 07:28:43;;;;;;;11.20;3.80;;;5.40;99.90;;;;;;5019390;28;20049;-91
2022/01/15 07:31:09;;;;;;;11.90;4.75;;;5.40;99.90;;;;;;5019852;28;20187;-91
2022/01/15 07:33:35;;;;;;;10.88;4.05;;;5.40;99.90;;;;;;5022594;28;20077;-91
2022/01/15 07:36:00;;;;;;;12.80;4.22;;;5.40;99.90;;;;;;5021007;28;20045;-91
2022/01/15 07:38:26;;;;;;;11.13;5.00;;;5.40;99.90;;;;;;5020364;28;20038;-90
2022/01/15 07:40:57;;;;;;;11.18;4.60;;;5.40;99.90;;;;;;5020983;28;20105;-90
2022/01/15 07:43:24;;;;;;;12.40;4.57;;;5.40;99.90;;;;;;5004814;28;20110;-91
2022/01/15 07:45:49;;;;;;;11.93;4.45;;;5.40;99.90;;;;;;5021891;28;20514;-91
2022/01/15 07:48:15;;;;;;;12.25;5.45;;;5.40;99.90;;;;;;5021024;28;20045;-90
2022/01/15 07:50:41;;;;;;;11.98;4.70;;;5.40;99.90;;;;;;5023846;28;20591;-90
2022/01/15 07:53:07;;;;;;;12.93;4.60;;;5.40;99.90;;;;;;5010563;28;20072;-90
2022/01/15 07:55:33;;;;;;;12.63;4.68;;;5.40;99.90;;;;;;5028268;28;20038;-90
2022/01/15 07:57:58;;;;;;;10.38;4.93;;;5.40;99.90;;;;;;5028715;28;20133;-90
2022/01/15 08:00:24;;;;;;;12.63;4.80;;;5.50;99.90;;;;;;5021334;28;20456;-90
2022/01/15 08:02:50;;;;;;;13.43;5.15;;;5.50;99.90;;;;;;5017577;28;20046;-90
2022/01/15 08:05:16;;;;;;;11.40;4.72;;;5.50;99.90;;;;;;5016654;28;20046;-91
2022/01/15 08:07:42;;;;;;;13.85;3.97;;;6.80;99.90;;;;;;5015608;28;20049;-90
2022/01/15 08:10:09;;;;;;;13.05;3.95;;;5.40;99.90;;;;;;4997524;28;20072;-90
2022/01/15 08:12:42;;;;;;;11.60;4.72;;;5.50;99.90;;;;;;5016759;28;20050;-91
2022/01/15 08:15:08;;;;;;;11.00;4.18;;;5.50;99.90;;;;;;5019548;28;20129;-90
2022/01/15 08:17:33;;;;;;;9.57;4.07;;;5.50;99.90;;;;;;5022061;28;20123;-90
2022/01/15 08:19:59;;;;;;;12.30;3.67;;;5.50;99.90;;;;;;5021482;28;20050;-92
2022/01/15 08:22:25;;;;;;;8.20;3.45;;;5.50;99.90;;;;;;5022147;28;20048;-90
2022/01/15 08:24:50;;;;;;;9.05;3.42;;;5.50;99.90;;;;;;5023039;28;20064;-91
2022/01/15 08:27:16;;;;;;;12.27;3.38;;;6.40;99.90;;;;;;5025052;28;20088;-90
2022/01/15 08:29:45;;;;;;;8.00;2.60;;;5.50;99.90;;;;;;5029353;28;20073;-90
2022/01/15 08:32:11;;;;;;;5.43;2.20;;;5.50;99.90;;;;;;5028975;28;20061;-90
2022/01/15 08:34:37;;;;;;;6.45;2.28;;;5.40;99.90;;;;;;5014070;28;20030;-90
2022/01/15 08:37:03;;;;;;;6.32;2.22;;;5.40;99.90;;;;;;5014708;28;20037;-91
2022/01/15 08:39:29;;;;;;;9.88;3.22;;;5.40;99.90;;;;;;5028180;28;20044;-90
2022/01/15 08:41:54;;;;;;;5.75;2.50;;;5.40;99.90;;;;;;5028582;28;20061;-91
2022/01/15 08:44:25;;;;;;;6.40;2.40;;;5.40;99.90;;;;;;5026774;28;20029;-90
2022/01/15 08:46:51;;;;;;;4.88;2.30;;;5.40;99.90;;;;;;5028544;28;20034;-90
2022/01/15 08:49:18;;;;;;;7.20;3.05;;;5.40;99.90;;;;;;5029301;28;20038;-90
2022/01/15 08:51:45;;;;;;;6.93;2.58;;;5.40;99.90;;;;;;5025116;28;20057;-90
2022/01/15 08:54:10;;;;;;;7.65;3.75;;;5.50;99.90;;;;;;5025396;28;20049;-90
2022/01/15 08:56:36;;;;;;;9.80;4.57;;;5.50;99.90;;;;;;5009331;28;20053;-90
2022/01/15 08:59:03;;;;;;;10.23;4.18;;;5.40;99.90;;;;;;5025728;28;20108;-90
2022/01/15 09:01:29;;;;;;;9.05;4.78;;;5.40;99.90;;;;;;5027624;28;20038;-91
2022/01/15 09:03:58;;;;;;;9.90;4.40;;;5.50;99.90;;;;;;5024860;28;20103;-91
2022/01/15 09:06:24;;;;;;;10.02;4.93;;;5.50;99.90;;;;;;5025926;28;20018;-90
2022/01/15 09:08:50;;;;;;;13.95;6.35;;;5.50;99.90;;;;;;5011071;28;20046;-90
2022/01/15 09:11:16;;;;;;;14.07;5.82;;;5.60;99.90;;;;;;5024004;28;20153;-91
2022/01/15 09:13:44;;;;;;;14.63;6.97;;;5.60;99.90;;;;;;5007620;28;20053;-90
2022/01/15 09:16:10;;;;;;;13.60;6.43;;;5.60;99.90;;;;;;5021333;28;20053;-91
2022/01/15 09:18:37;;;;;;;16.48;8.02;;;5.60;99.90;;;;;;5021354;28;20046;-90
2022/01/15 09:21:03;;;;;;;18.70;7.82;;;5.60;99.90;;;;;;5014450;28;20030;-90
2022/01/15 09:23:29;;;;;;;15.40;6.63;;;5.60;99.90;;;;;;4993818;28;20049;-91
2022/01/15 09:25:57;;;;;;;14.80;7.38;;;5.70;99.90;;;;;;5010268;28;20137;-91
2022/01/15 09:31:07;;;;;;;14.68;6.70;;;5.80;99.90;;;;;;5010967;28;20591;-90
2022/01/15 09:33:33;;;;;;;15.80;7.65;;;5.80;99.90;;;;;;5010781;28;20329;-90
2022/01/15 09:35:58;;;;;;;17.15;7.75;;;5.80;99.90;;;;;;5012093;28;20125;-90
2022/01/15 09:38:24;;;;;;;19.35;9.10;;;5.70;99.90;;;;;;5015430;28;20057;-90
2022/01/15 09:40:49;;;;;;;17.15;7.90;;;5.70;99.90;;;;;;5000926;28;20082;-91
2022/01/15 09:43:15;;;;;;;19.80;8.57;;;5.70;99.90;;;;;;5012462;28;20058;-90
2022/01/15 09:45:42;;;;;;;22.42;9.82;;;5.70;99.90;;;;;;5028883;28;20030;-90
2022/01/15 09:48:09;;;;;;;21.00;10.35;;;5.80;99.90;;;;;;5014494;28;20044;-90
2022/01/15 09:50:41;;;;;;;18.23;9.50;;;5.90;99.90;;;;;;5030992;28;20036;-90
2022/01/15 09:53:07;;;;;;;16.45;7.90;;;5.90;99.90;;;;;;5018354;28;20046;-91
2022/01/15 09:55:33;;;;;;;19.58;9.57;;;5.90;99.90;;;;;;4996293;28;20072;-91
2022/01/15 09:57:58;;;;;;;19.48;9.93;;;5.90;99.90;;;;;;5010913;28;20101;-90
2022/01/15 10:00:25;;;;;;;17.88;9.00;;;5.90;99.90;;;;;;5014839;28;20046;-91
2022/01/15 10:02:52;;;;;;;20.17;9.75;;;5.90;99.90;;;;;;5018836;28;20061;-90
2022/01/15 10:05:19;;;;;;;14.93;7.50;;;5.90;99.90;;;;;;5024654;28;20406;-89
2022/01/15 10:07:58;;;;;;;16.50;7.88;;;5.80;99.90;;;;;;5023354;28;20048;-90
2022/01/15 10:10:25;;;;;;;14.80;7.88;;;5.70;99.90;;;;;;5020814;28;20057;-90
2022/01/15 10:12:51;;;;;;;16.60;8.38;;;5.70;99.90;;;;;;5019541;28;20052;-90
2022/01/15 10:15:17;;;;;;;16.13;7.40;;;5.70;99.90;;;;;;5021254;28;20136;-90
2022/01/15 10:17:43;;;;;;;15.48;7.45;;;5.70;99.90;;;;;;5023020;28;20111;-90
2022/01/15 10:20:18;;;;;;;14.10;6.85;;;5.70;99.90;;;;;;5007383;28;20054;-90
2022/01/15 10:22:46;;;;;;;16.98;7.47;;;5.60;99.90;;;;;;5003558;28;20057;-90
2022/01/15 10:25:20;;;;;;;15.18;7.13;;;5.70;99.90;;;;;;5018312;28;20053;-91
2022/01/15 10:27:47;;;;;;;16.70;7.63;;;5.70;99.90;;;;;;5002715;28;20050;-90
2022/01/15 10:30:16;;;;;;;16.00;8.27;;;5.70;99.90;;;;;;5014934;28;20076;-91
2022/01/15 10:33:06;;;;;;;15.48;6.80;;;5.80;99.90;;;;;;5015038;28;20496;-91
2022/01/15 10:35:32;;;;;;;15.43;7.82;;;5.90;99.90;;;;;;5015410;28;20038;-90
2022/01/15 10:38:00;;;;;;;17.40;7.95;;;5.90;99.90;;;;;;4998987;28;20049;-91
2022/01/15 10:40:55;;;;;;;19.23;7.72;;;5.80;99.90;;;;;;5013654;28;20062;-90
2022/01/15 10:43:29;;;;;;;15.13;7.10;;;5.90;99.90;;;;;;5012803;28;20300;-91
2022/01/15 10:45:58;;;;;;;20.48;8.95;;;5.90;99.90;;;;;;5018554;28;20061;-91
2022/01/15 10:48:34;;;;;;;19.00;8.90;;;6.70;99.90;;;;;;5017573;28;20046;-90
2022/01/15 10:51:03;;;;;;;14.40;7.45;;;5.90;99.90;;;;;;5001805;28;20057;-91
2022/01/15 10:53:46;;;;;;;18.42;8.35;;;5.90;99.90;;;;;;5000236;28;20060;-91
2022/01/15 10:56:14;;;;;;;18.02;9.07;;;5.90;99.90;;;;;;5000307;28;20093;-91
2022/01/15 10:58:42;;;;;;;18.23;8.80;;;5.90;99.90;;;;;;5012250;28;20089;-90
2022/01/15 11:01:12;;;;;;;16.00;7.47;;;5.90;99.90;;;;;;5013004;28;20082;-90
2022/01/15 11:03:45;;;;;;;17.75;8.77;;;6.00;99.90;;;;;;5018163;28;20049;-90
2022/01/15 11:06:11;;;;;;;19.30;9.23;;;5.90;99.90;;;;;;5013726;28;20117;-90
2022/01/15 11:08:39;;;;;;;19.30;9.43;;;6.00;99.90;;;;;;4997132;28;20049;-90
2022/01/15 11:11:10;;;;;;;17.30;8.40;;;5.80;99.90;;;;;;5016268;28;20046;-90
2022/01/15 11:13:39;;;;;;;18.73;9.95;;;5.70;99.90;;;;;;5000685;28;20096;-90
2022/01/15 11:16:14;;;;;;;16.63;8.25;;;5.70;99.90;;;;;;5000605;28;20046;-90
2022/01/15 11:18:46;;;;;;;17.33;8.52;;;5.80;99.90;;;;;;5015854;28;20080;-90
2022/01/15 11:21:15;;;;;;;16.55;9.15;;;5.80;99.90;;;;;;4999974;28;20068;-90
2022/01/15 11:23:42;;;;;;;16.63;8.45;;;5.90;99.90;;;;;;5014871;28;20140;-90
2022/01/15 11:26:13;;;;;;;17.45;9.02;;;5.80;99.90;;;;;;5013087;28;20050;-90
2022/01/15 11:28:41;;;;;;;16.13;7.32;;;5.90;99.90;;;;;;5011784;28;20500;-90
2022/01/15 11:31:14;;;;;;;19.92;9.52;;;5.80;99.90;;;;;;4991989;28;20053;-90
2022/01/15 11:33:52;;;;;;;18.25;10.05;;;5.80;99.90;;;;;;5008080;28;20052;-90
2022/01/15 11:36:33;;;;;;;19.67;9.77;;;5.80;99.90;;;;;;4992332;28;20054;-90
2022/01/15 11:39:03;;;;;;;17.55;9.38;;;5.80;99.90;;;;;;5007390;28;20054;-90
2022/01/15 11:41:31;;;;;;;21.83;11.55;;;5.90;99.90;;;;;;5007709;28;20136;-90
2022/01/15 11:43:58;;;;;;;15.00;7.45;;;5.90;99.90;;;;;;5006864;28;20052;-90
2022/01/15 11:46:33;;;;;;;19.40;11.45;;;5.90;99.90;;;;;;5008237;28;20078;-90
2022/01/15 11:49:24;;;;;;;21.45;11.50;;;5.90;99.90;;;;;;5010278;28;20053;-91
2022/01/15 11:51:55;;;;;;;19.83;10.77;;;5.80;99.90;;;;;;4994725;28;20049;-90
2022/01/15 11:54:20;;;;;;;20.92;11.60;;;5.90;99.90;;;;;;4994536;28;20469;-90
2022/01/15 11:56:47;;;;;;;23.10;11.85;;;5.80;99.90;;;;;;5012777;28;20057;-90
2022/01/15 11:59:32;;;;;;;20.45;11.60;;;5.90;99.90;;;;;;5012399;28;20038;-90
2022/01/15 12:02:01;;;;;;;21.80;12.93;;;5.90;99.90;;;;;;4981800;28;20137;-89
2022/01/15 12:04:29;;;;;;;20.33;11.80;;;5.90;99.90;;;;;;5012599;28;20157;-90
2022/01/15 12:09:37;;;;;;;20.52;10.65;;;5.90;99.90;;;;;;5010248;28;20060;-90
2022/01/15 12:12:38;;;;;;;18.30;10.52;;;5.90;99.90;;;;;;5010485;28;20126;-90
2022/01/15 12:15:06;;;;;;;21.33;12.43;;;5.80;99.90;;;;;;5010573;28;20058;-91
2022/01/15 12:17:50;;;;;;;20.67;12.55;;;5.70;99.90;;;;;;4994264;28;20475;-90
2022/01/15 12:20:25;;;;;;;23.80;12.93;;;5.70;99.90;;;;;;5012645;28;20052;-90
2022/01/15 12:22:53;;;;;;;19.33;10.90;;;5.70;99.90;;;;;;5010635;28;20496;-90
2022/01/15 12:25:19;;;;;;;21.42;12.13;;;5.70;99.90;;;;;;5014185;28;20112;-89
2022/01/15 12:28:03;;;;;;;23.65;13.75;;;6.10;99.90;;;;;;5014433;28;20054;-90
2022/01/15 12:30:31;;;;;;;22.48;11.18;;;5.70;99.90;;;;;;5012218;28;20491;-90
2022/01/15 12:33:00;;;;;;;25.83;13.85;;;6.30;99.90;;;;;;5010632;28;20164;-90
2022/01/15 12:35:37;;;;;;;26.40;14.23;;;5.70;99.90;;;;;;4996691;28;20092;-90
2022/01/15 12:38:07;;;;;;;23.65;12.52;;;5.70;99.90;;;;;;5012599;28;20080;-89
2022/01/15 12:40:38;;;;;;;26.00;14.63;;;5.70;99.90;;;;;;5011432;28;20093;-89
2022/01/15 12:43:07;;;;;;;23.25;13.02;;;5.70;99.90;;;;;;5010317;28;20045;-90
2022/01/15 12:45:35;;;;;;;24.88;13.20;;;5.70;99.90;;;;;;5009698;28;20073;-90
2022/01/15 12:48:02;;;;;;;27.42;14.00;;;5.70;99.90;;;;;;5009321;28;20095;-90
2022/01/15 12:50:28;;;;;;;23.60;12.77;;;5.60;99.90;;;;;;5009326;28;20136;-90
2022/01/15 12:53:04;;;;;;;29.58;14.93;;;5.70;99.90;;;;;;5010018;28;20054;-89
2022/01/15 12:55:35;;;;;;;20.90;11.70;;;6.60;99.90;;;;;;5009169;28;20107;-90
2022/01/15 12:58:06;;;;;;;28.95;13.88;;;5.60;99.90;;;;;;5008726;28;20050;-89
2022/01/15 13:00:34;;;;;;;28.35;15.77;;;6.50;99.90;;;;;;4993220;28;20119;-90
2022/01/15 13:03:06;;;;;;;29.17;14.70;;;5.50;99.90;;;;;;5008685;28;20052;-90
2022/01/15 13:05:53;;;;;;;34.60;16.98;;;5.40;99.90;;;;;;5010669;28;20073;-90
2022/01/15 13:08:28;;;;;;;27.20;12.77;;;5.50;99.90;;;;;;5007787;28;20057;-89
2022/01/15 13:11:03;;;;;;;31.70;16.48;;;5.50;99.90;;;;;;5007608;28;20148;-89
2022/01/15 13:13:34;;;;;;;31.30;14.48;;;5.40;99.90;;;;;;5007325;28;20382;-90
2022/01/15 13:16:09;;;;;;;24.83;13.13;;;5.40;99.90;;;;;;5009720;28;20458;-90
2022/01/15 13:18:46;;;;;;;27.13;13.23;;;5.30;99.90;;;;;;5008872;28;20535;-90